Terminal Aerodrome Forecast
Issued by NWS

Home | Current Version | Previous Version | Text Only | Print | Product List | Glossary On
Versions: 1 2 3 4 5 6 7 8 9 10 11 12 13 14
000
FTAK31 PAJN 221736
TAFAGY
TAF
PAGY 221736Z 2218/2318 21006KT P6SM -SHRA SCT025 OVC045
     FM222000 21016G26KT P6SM VCSH BKN060 OVC080
     FM230600 21009KT P6SM SCT050 BKN070
      AMD LTD TO CLD VIS AND WIND=

USA.gov is the U.S. government's official web portal to all federal, state and local government web resources and services.